sensor_id;sensor_type;location;lat;lon;timestamp;pressure;altitude;pressure_sealevel;temperature;humidity
59104;BME280;51449;51.676;5.812;2023-04-02T00:00:28;100989.09;;;7.86;83.37
59104;BME280;51449;51.676;5.812;2023-04-02T00:07:52;101014.50;;;7.78;83.37
59104;BME280;51449;51.676;5.812;2023-04-02T00:10:35;101011.28;;;7.76;83.30
59104;BME280;51449;51.676;5.812;2023-04-02T00:15:31;101022.03;;;7.72;83.35
59104;BME280;51449;51.676;5.812;2023-04-02T00:17:55;101029.66;;;7.75;83.68
59104;BME280;51449;51.676;5.812;2023-04-02T00:20:19;101033.22;;;7.76;83.15
59104;BME280;51449;51.676;5.812;2023-04-02T00:22:43;101032.22;;;7.71;82.95
59104;BME280;51449;51.676;5.812;2023-04-02T00:25:12;101033.31;;;7.70;83.09
59104;BME280;51449;51.676;5.812;2023-04-02T00:27:35;101048.38;;;7.59;83.30
59104;BME280;51449;51.676;5.812;2023-04-02T00:29:58;101044.13;;;7.53;83.26
59104;BME280;51449;51.676;5.812;2023-04-02T00:32:25;101053.59;;;7.47;83.31
59104;BME280;51449;51.676;5.812;2023-04-02T00:34:49;101053.09;;;7.45;83.23
59104;BME280;51449;51.676;5.812;2023-04-02T00:37:18;101055.03;;;7.44;83.46
59104;BME280;51449;51.676;5.812;2023-04-02T00:39:46;101054.22;;;7.44;83.03
59104;BME280;51449;51.676;5.812;2023-04-02T00:42:10;101057.88;;;7.39;83.56
59104;BME280;51449;51.676;5.812;2023-04-02T00:44:39;101064.16;;;7.40;83.70
59104;BME280;51449;51.676;5.812;2023-04-02T00:47:22;101063.13;;;7.36;83.30
59104;BME280;51449;51.676;5.812;2023-04-02T00:49:53;101079.06;;;7.34;83.51
59104;BME280;51449;51.676;5.812;2023-04-02T00:52:23;101081.00;;;7.33;84.31
59104;BME280;51449;51.676;5.812;2023-04-02T00:54:51;101071.06;;;7.23;83.81
59104;BME280;51449;51.676;5.812;2023-04-02T00:57:24;101077.16;;;7.20;84.34
59104;BME280;51449;51.676;5.812;2023-04-02T01:00:16;101086.81;;;7.18;84.06
59104;BME280;51449;51.676;5.812;2023-04-02T01:02:41;101102.25;;;7.27;83.54
59104;BME280;51449;51.676;5.812;2023-04-02T01:05:24;101097.97;;;7.21;83.46
59104;BME280;51449;51.676;5.812;2023-04-02T01:10:53;101104.06;;;7.18;83.39
59104;BME280;51449;51.676;5.812;2023-04-02T01:24:30;101128.81;;;7.13;83.09
59104;BME280;51449;51.676;5.812;2023-04-02T01:27:00;101142.53;;;7.13;83.21
59104;BME280;51449;51.676;5.812;2023-04-02T01:29:34;101139.59;;;7.10;82.80
59104;BME280;51449;51.676;5.812;2023-04-02T01:32:03;101148.09;;;7.08;82.78
59104;BME280;51449;51.676;5.812;2023-04-02T01:34:29;101158.53;;;7.06;82.17
59104;BME280;51449;51.676;5.812;2023-04-02T01:37:19;101155.81;;;7.06;82.30
59104;BME280;51449;51.676;5.812;2023-04-02T01:42:35;101169.50;;;7.06;82.05
59104;BME280;51449;51.676;5.812;2023-04-02T01:45:15;101168.69;;;7.05;81.97
59104;BME280;51449;51.676;5.812;2023-04-02T01:47:42;101174.97;;;7.06;82.27
59104;BME280;51449;51.676;5.812;2023-04-02T01:50:40;101177.94;;;7.10;82.61
59104;BME280;51449;51.676;5.812;2023-04-02T01:53:11;101180.47;;;7.06;82.16
59104;BME280;51449;51.676;5.812;2023-04-02T01:55:47;101183.91;;;6.98;82.65
59104;BME280;51449;51.676;5.812;2023-04-02T01:58:22;101187.44;;;6.98;81.88
59104;BME280;51449;51.676;5.812;2023-04-02T02:00:56;101199.91;;;6.91;82.67
59104;BME280;51449;51.676;5.812;2023-04-02T02:03:23;101198.25;;;6.90;82.12
59104;BME280;51449;51.676;5.812;2023-04-02T02:05:45;101207.59;;;6.89;82.04
59104;BME280;51449;51.676;5.812;2023-04-02T02:08:20;101210.94;;;6.85;82.35
59104;BME280;51449;51.676;5.812;2023-04-02T02:10:52;101219.75;;;6.82;82.39
59104;BME280;51449;51.676;5.812;2023-04-02T02:13:14;101221.91;;;6.85;82.52
59104;BME280;51449;51.676;5.812;2023-04-02T02:15:36;101223.88;;;6.80;82.27
59104;BME280;51449;51.676;5.812;2023-04-02T02:18:03;101227.22;;;6.77;82.09
59104;BME280;51449;51.676;5.812;2023-04-02T02:20:27;101223.38;;;6.78;82.61
59104;BME280;51449;51.676;5.812;2023-04-02T02:22:50;101241.22;;;6.75;81.98
59104;BME280;51449;51.676;5.812;2023-04-02T02:25:24;101245.28;;;6.78;81.93
59104;BME280;51449;51.676;5.812;2023-04-02T02:30:43;101255.59;;;6.67;81.97
59104;BME280;51449;51.676;5.812;2023-04-02T02:33:18;101261.06;;;6.67;82.27
59104;BME280;51449;51.676;5.812;2023-04-02T02:39:03;101266.69;;;6.57;82.12
59104;BME280;51449;51.676;5.812;2023-04-02T02:46:32;101283.28;;;6.47;81.87
59104;BME280;51449;51.676;5.812;2023-04-02T02:49:02;101286.81;;;6.47;81.96
59104;BME280;51449;51.676;5.812;2023-04-02T02:51:36;101286.75;;;6.52;82.30
59104;BME280;51449;51.676;5.812;2023-04-02T02:54:04;101301.81;;;6.50;81.98
59104;BME280;51449;51.676;5.812;2023-04-02T02:56:30;101316.13;;;6.47;81.90
59104;BME280;51449;51.676;5.812;2023-04-02T02:58:57;101300.78;;;6.46;81.98
59104;BME280;51449;51.676;5.812;2023-04-02T03:01:27;101311.19;;;6.43;82.13
59104;BME280;51449;51.676;5.812;2023-04-02T03:03:53;101332.63;;;6.36;81.58
59104;BME280;51449;51.676;5.812;2023-04-02T03:06:17;101314.38;;;6.32;81.46
59104;BME280;51449;51.676;5.812;2023-04-02T03:09:10;101316.81;;;6.33;81.41
59104;BME280;51449;51.676;5.812;2023-04-02T03:11:48;101329.34;;;6.39;81.57
59104;BME280;51449;51.676;5.812;2023-04-02T03:14:23;101327.34;;;6.45;81.43
59104;BME280;51449;51.676;5.812;2023-04-02T03:16:59;101332.22;;;6.48;81.44
59104;BME280;51449;51.676;5.812;2023-04-02T03:19:38;101340.16;;;6.50;81.42
59104;BME280;51449;51.676;5.812;2023-04-02T03:22:15;101357.09;;;6.52;81.27
59104;BME280;51449;51.676;5.812;2023-04-02T03:24:57;101346.78;;;6.43;81.42
59104;BME280;51449;51.676;5.812;2023-04-02T03:27:29;101350.13;;;6.40;81.56
59104;BME280;51449;51.676;5.812;2023-04-02T03:32:34;101373.47;;;6.33;81.82
59104;BME280;51449;51.676;5.812;2023-04-02T03:35:16;101376.88;;;6.25;81.46
59104;BME280;51449;51.676;5.812;2023-04-02T03:38:20;101381.56;;;6.19;81.41
59104;BME280;51449;51.676;5.812;2023-04-02T03:44:22;101398.63;;;6.11;80.99
59104;BME280;51449;51.676;5.812;2023-04-02T03:47:00;101399.19;;;6.08;81.17
59104;BME280;51449;51.676;5.812;2023-04-02T03:49:55;101404.47;;;5.99;81.79
59104;BME280;51449;51.676;5.812;2023-04-02T03:52:26;101418.47;;;5.97;81.89
59104;BME280;51449;51.676;5.812;2023-04-02T03:54:54;101432.13;;;5.97;81.14
59104;BME280;51449;51.676;5.812;2023-04-02T04:00:04;101443.38;;;5.91;81.47
59104;BME280;51449;51.676;5.812;2023-04-02T04:02:50;101442.03;;;5.88;81.35
59104;BME280;51449;51.676;5.812;2023-04-02T04:05:33;101440.63;;;5.91;81.37
59104;BME280;51449;51.676;5.812;2023-04-02T04:08:14;101456.50;;;5.89;81.23
59104;BME280;51449;51.676;5.812;2023-04-02T04:10:39;101458.69;;;5.87;81.68
59104;BME280;51449;51.676;5.812;2023-04-02T04:13:30;101462.25;;;5.87;81.20
59104;BME280;51449;51.676;5.812;2023-04-02T04:16:26;101472.97;;;5.84;81.00
59104;BME280;51449;51.676;5.812;2023-04-02T04:19:17;101473.31;;;5.72;81.30
59104;BME280;51449;51.676;5.812;2023-04-02T04:22:19;101480.44;;;5.68;81.13
59104;BME280;51449;51.676;5.812;2023-04-02T04:25:29;101494.94;;;5.68;81.21
59104;BME280;51449;51.676;5.812;2023-04-02T04:28:25;101500.13;;;5.70;81.47
59104;BME280;51449;51.676;5.812;2023-04-02T04:31:22;101511.91;;;5.65;80.83
59104;BME280;51449;51.676;5.812;2023-04-02T04:34:16;101515.47;;;5.61;81.58
59104;BME280;51449;51.676;5.812;2023-04-02T04:37:05;101519.06;;;5.61;81.56
59104;BME280;51449;51.676;5.812;2023-04-02T04:39:59;101532.75;;;5.56;81.04
59104;BME280;51449;51.676;5.812;2023-04-02T04:42:52;101534.72;;;5.45;81.36
59104;BME280;51449;51.676;5.812;2023-04-02T04:46:08;101540.72;;;5.47;81.06
59104;BME280;51449;51.676;5.812;2023-04-02T04:49:01;101542.91;;;5.45;81.04
59104;BME280;51449;51.676;5.812;2023-04-02T04:51:52;101554.97;;;5.44;81.32
59104;BME280;51449;51.676;5.812;2023-04-02T04:54:38;101556.34;;;5.42;80.98
59104;BME280;51449;51.676;5.812;2023-04-02T04:57:29;101571.63;;;5.43;81.00
59104;BME280;51449;51.676;5.812;2023-04-02T05:00:21;101575.97;;;5.44;80.78
59104;BME280;51449;51.676;5.812;2023-04-02T05:06:23;101595.94;;;5.44;80.81
59104;BME280;51449;51.676;5.812;2023-04-02T05:09:36;101601.44;;;5.39;80.49
59104;BME280;51449;51.676;5.812;2023-04-02T05:12:41;101601.41;;;5.44;80.20
59104;BME280;51449;51.676;5.812;2023-04-02T05:18:27;101617.00;;;5.39;78.99
59104;BME280;51449;51.676;5.812;2023-04-02T05:21:05;101628.25;;;5.32;78.66
59104;BME280;51449;51.676;5.812;2023-04-02T05:23:52;101627.16;;;5.28;78.74
59104;BME280;51449;51.676;5.812;2023-04-02T05:26:36;101640.25;;;5.31;78.97
59104;BME280;51449;51.676;5.812;2023-04-02T05:29:20;101641.09;;;5.21;78.55
59104;BME280;51449;51.676;5.812;2023-04-02T05:31:59;101637.53;;;5.26;78.33
59104;BME280;51449;51.676;5.812;2023-04-02T05:34:37;101638.66;;;5.25;78.45
59104;BME280;51449;51.676;5.812;2023-04-02T05:37:22;101643.28;;;5.29;78.93
59104;BME280;51449;51.676;5.812;2023-04-02T05:39:53;101647.63;;;5.35;79.05
59104;BME280;51449;51.676;5.812;2023-04-02T05:42:30;101647.38;;;5.32;78.91
59104;BME280;51449;51.676;5.812;2023-04-02T05:45:36;101657.47;;;5.31;78.43
59104;BME280;51449;51.676;5.812;2023-04-02T05:48:24;101669.25;;;5.27;78.52
59104;BME280;51449;51.676;5.812;2023-04-02T05:51:04;101668.13;;;5.28;78.45
59104;BME280;51449;51.676;5.812;2023-04-02T05:54:00;101677.97;;;5.29;78.66
59104;BME280;51449;51.676;5.812;2023-04-02T05:56:43;101694.91;;;5.26;77.68
59104;BME280;51449;51.676;5.812;2023-04-02T05:59:22;101690.03;;;5.12;76.82
59104;BME280;51449;51.676;5.812;2023-04-02T06:02:29;101706.16;;;5.04;76.85
59104;BME280;51449;51.676;5.812;2023-04-02T06:05:11;101703.16;;;5.00;77.08
59104;BME280;51449;51.676;5.812;2023-04-02T06:07:57;101712.72;;;5.03;77.05
59104;BME280;51449;51.676;5.812;2023-04-02T06:10:44;101713.25;;;5.05;77.33
59104;BME280;51449;51.676;5.812;2023-04-02T06:13:23;101714.88;;;5.06;77.65
59104;BME280;51449;51.676;5.812;2023-04-02T06:15:55;101735.63;;;5.02;76.87
59104;BME280;51449;51.676;5.812;2023-04-02T06:18:33;101743.31;;;5.05;76.73
59104;BME280;51449;51.676;5.812;2023-04-02T06:21:07;101749.84;;;5.04;76.66
59104;BME280;51449;51.676;5.812;2023-04-02T06:23:50;101764.31;;;4.99;76.02
59104;BME280;51449;51.676;5.812;2023-04-02T06:26:34;101758.59;;;4.96;76.26
59104;BME280;51449;51.676;5.812;2023-04-02T06:29:30;101760.78;;;4.93;75.85
59104;BME280;51449;51.676;5.812;2023-04-02T06:32:15;101760.47;;;4.90;75.77
59104;BME280;51449;51.676;5.812;2023-04-02T06:34:47;101774.69;;;4.92;76.60
59104;BME280;51449;51.676;5.812;2023-04-02T06:37:34;101775.53;;;4.98;75.45
59104;BME280;51449;51.676;5.812;2023-04-02T06:46:33;101787.22;;;4.83;75.63
59104;BME280;51449;51.676;5.812;2023-04-02T06:49:24;101803.09;;;4.81;75.58
59104;BME280;51449;51.676;5.812;2023-04-02T06:52:04;101816.44;;;4.77;75.43
59104;BME280;51449;51.676;5.812;2023-04-02T06:54:44;101828.72;;;4.69;74.99
59104;BME280;51449;51.676;5.812;2023-04-02T06:57:17;101829.25;;;4.61;74.82
59104;BME280;51449;51.676;5.812;2023-04-02T06:59:51;101820.50;;;4.59;75.62
59104;BME280;51449;51.676;5.812;2023-04-02T07:02:34;101826.00;;;4.69;76.19
59104;BME280;51449;51.676;5.812;2023-04-02T07:05:12;101843.19;;;4.70;75.27
59104;BME280;51449;51.676;5.812;2023-04-02T07:07:49;101860.38;;;4.65;74.77
59104;BME280;51449;51.676;5.812;2023-04-02T07:10:21;101873.47;;;4.63;74.71
59104;BME280;51449;51.676;5.812;2023-04-02T07:12:53;101864.72;;;4.61;74.29
59104;BME280;51449;51.676;5.812;2023-04-02T07:15:26;101872.13;;;4.66;75.27
59104;BME280;51449;51.676;5.812;2023-04-02T07:17:58;101870.75;;;4.68;75.21
59104;BME280;51449;51.676;5.812;2023-04-02T07:20:33;101881.69;;;4.74;75.14
59104;BME280;51449;51.676;5.812;2023-04-02T07:23:12;101869.13;;;4.78;74.75
59104;BME280;51449;51.676;5.812;2023-04-02T07:25:48;101890.69;;;4.64;73.38
59104;BME280;51449;51.676;5.812;2023-04-02T07:28:21;101890.13;;;4.62;74.26
59104;BME280;51449;51.676;5.812;2023-04-02T07:30:54;101889.56;;;4.65;73.69
59104;BME280;51449;51.676;5.812;2023-04-02T07:33:28;101898.06;;;4.68;74.39
59104;BME280;51449;51.676;5.812;2023-04-02T07:36:01;101902.72;;;4.73;74.46
59104;BME280;51449;51.676;5.812;2023-04-02T07:38:33;101914.47;;;4.74;73.81
59104;BME280;51449;51.676;5.812;2023-04-02T07:41:05;101904.09;;;4.76;74.21
59104;BME280;51449;51.676;5.812;2023-04-02T07:43:38;101905.47;;;4.78;74.56
59104;BME280;51449;51.676;5.812;2023-04-02T07:46:11;101912.81;;;4.83;74.81
59104;BME280;51449;51.676;5.812;2023-04-02T07:48:46;101917.22;;;4.89;74.04
59104;BME280;51449;51.676;5.812;2023-04-02T07:51:24;101929.78;;;4.90;74.22
59104;BME280;51449;51.676;5.812;2023-04-02T07:53:56;101931.97;;;4.88;73.50
59104;BME280;51449;51.676;5.812;2023-04-02T07:56:29;101934.16;;;4.91;72.90
59104;BME280;51449;51.676;5.812;2023-04-02T07:59:02;101937.97;;;4.85;73.02
59104;BME280;51449;51.676;5.812;2023-04-02T08:01:35;101940.41;;;4.81;73.14
59104;BME280;51449;51.676;5.812;2023-04-02T08:04:15;101943.69;;;4.78;72.95
59104;BME280;51449;51.676;5.812;2023-04-02T08:06:49;101943.38;;;4.75;72.45
59104;BME280;51449;51.676;5.812;2023-04-02T08:09:21;101950.50;;;4.76;72.84
59104;BME280;51449;51.676;5.812;2023-04-02T08:11:53;101969.63;;;4.81;73.32
59104;BME280;51449;51.676;5.812;2023-04-02T08:14:24;101961.97;;;4.83;72.51
59104;BME280;51449;51.676;5.812;2023-04-02T08:16:56;101979.44;;;4.77;72.98
59104;BME280;51449;51.676;5.812;2023-04-02T08:19:29;101983.22;;;4.70;72.36
59104;BME280;51449;51.676;5.812;2023-04-02T08:22:01;101999.59;;;4.70;72.75
59104;BME280;51449;51.676;5.812;2023-04-02T08:24:33;101994.41;;;4.64;72.65
59104;BME280;51449;51.676;5.812;2023-04-02T08:27:04;101990.03;;;4.68;72.53
59104;BME280;51449;51.676;5.812;2023-04-02T08:29:38;102006.72;;;4.71;72.83
59104;BME280;51449;51.676;5.812;2023-04-02T08:32:13;102004.81;;;4.77;73.58
59104;BME280;51449;51.676;5.812;2023-04-02T08:34:46;102007.59;;;4.87;73.77
59104;BME280;51449;51.676;5.812;2023-04-02T08:37:18;102012.81;;;4.89;73.14
59104;BME280;51449;51.676;5.812;2023-04-02T08:39:50;102015.25;;;4.85;73.02
59104;BME280;51449;51.676;5.812;2023-04-02T08:42:29;102020.97;;;4.84;73.11
59104;BME280;51449;51.676;5.812;2023-04-02T08:45:24;102028.63;;;4.87;73.38
59104;BME280;51449;51.676;5.812;2023-04-02T08:48:11;102034.41;;;4.90;72.78
59104;BME280;51449;51.676;5.812;2023-04-02T08:50:45;102040.13;;;4.94;72.70
59104;BME280;51449;51.676;5.812;2023-04-02T08:53:28;102052.75;;;5.00;73.32
59104;BME280;51449;51.676;5.812;2023-04-02T08:56:18;102064.16;;;4.92;72.64
59104;BME280;51449;51.676;5.812;2023-04-02T08:58:59;102064.69;;;4.89;72.56
59104;BME280;51449;51.676;5.812;2023-04-02T09:01:50;102074.50;;;4.90;72.77
59104;BME280;51449;51.676;5.812;2023-04-02T09:04:32;102080.28;;;4.93;73.42
59104;BME280;51449;51.676;5.812;2023-04-02T09:07:05;102081.16;;;5.04;73.12
59104;BME280;51449;51.676;5.812;2023-04-02T09:09:48;102081.16;;;5.04;72.54
59104;BME280;51449;51.676;5.812;2023-04-02T09:12:25;102089.34;;;5.04;72.58
59104;BME280;51449;51.676;5.812;2023-04-02T09:15:21;102088.28;;;5.10;72.87
59104;BME280;51449;51.676;5.812;2023-04-02T09:18:14;102093.53;;;5.17;72.57
59104;BME280;51449;51.676;5.812;2023-04-02T09:20:48;102102.75;;;5.11;72.30
59104;BME280;51449;51.676;5.812;2023-04-02T09:23:22;102109.59;;;5.08;71.92
59104;BME280;51449;51.676;5.812;2023-04-02T09:25:56;102106.03;;;5.08;71.75
59104;BME280;51449;51.676;5.812;2023-04-02T09:28:35;102102.22;;;5.14;71.88
59104;BME280;51449;51.676;5.812;2023-04-02T09:31:17;102106.09;;;5.18;71.74
59104;BME280;51449;51.676;5.812;2023-04-02T09:33:52;102112.41;;;5.29;71.72
59104;BME280;51449;51.676;5.812;2023-04-02T09:36:32;102119.00;;;5.38;71.40
59104;BME280;51449;51.676;5.812;2023-04-02T09:39:19;102124.47;;;5.38;71.49
59104;BME280;51449;51.676;5.812;2023-04-02T09:41:53;102124.47;;;5.33;70.80
59104;BME280;51449;51.676;5.812;2023-04-02T09:44:36;102137.31;;;5.32;70.94
59104;BME280;51449;51.676;5.812;2023-04-02T09:47:23;102150.44;;;5.35;70.81
59104;BME280;51449;51.676;5.812;2023-04-02T09:50:33;102155.13;;;5.45;70.93
59104;BME280;51449;51.676;5.812;2023-04-02T09:53:27;102160.91;;;5.49;70.44
59104;BME280;51449;51.676;5.812;2023-04-02T09:56:13;102164.69;;;5.48;70.70
59104;BME280;51449;51.676;5.812;2023-04-02T09:59:01;102168.78;;;5.45;70.19
59104;BME280;51449;51.676;5.812;2023-04-02T10:01:45;102178.38;;;5.48;70.81
59104;BME280;51449;51.676;5.812;2023-04-02T10:04:40;102177.00;;;5.45;69.73
59104;BME280;51449;51.676;5.812;2023-04-02T10:15:45;102201.66;;;5.61;69.95
59104;BME280;51449;51.676;5.812;2023-04-02T10:21:30;102201.72;;;5.71;69.19
59104;BME280;51449;51.676;5.812;2023-04-02T10:24:13;102213.47;;;5.71;68.49
59104;BME280;51449;51.676;5.812;2023-04-02T10:32:59;102231.31;;;5.84;68.25
59104;BME280;51449;51.676;5.812;2023-04-02T10:38:53;102227.03;;;5.98;68.62
59104;BME280;51449;51.676;5.812;2023-04-02T10:48:29;102247.00;;;6.04;68.08
59104;BME280;51449;51.676;5.812;2023-04-02T10:51:10;102242.91;;;6.12;67.81
59104;BME280;51449;51.676;5.812;2023-04-02T10:56:44;102243.50;;;6.19;67.45
59104;BME280;51449;51.676;5.812;2023-04-02T10:59:25;102246.78;;;6.21;67.07
59104;BME280;51449;51.676;5.812;2023-04-02T11:02:04;102254.44;;;6.24;67.80
59104;BME280;51449;51.676;5.812;2023-04-02T11:05:18;102253.94;;;6.27;67.02
59104;BME280;51449;51.676;5.812;2023-04-02T11:07:59;102266.28;;;6.35;66.64
59104;BME280;51449;51.676;5.812;2023-04-02T11:10:45;102262.72;;;6.34;65.77
59104;BME280;51449;51.676;5.812;2023-04-02T11:13:26;102272.31;;;6.37;66.42
59104;BME280;51449;51.676;5.812;2023-04-02T11:16:02;102275.59;;;6.44;66.76
59104;BME280;51449;51.676;5.812;2023-04-02T11:18:34;102273.94;;;6.48;66.56
59104;BME280;51449;51.676;5.812;2023-04-02T11:21:42;102274.00;;;6.58;67.01
59104;BME280;51449;51.676;5.812;2023-04-02T11:24:33;102284.13;;;6.63;66.03
59104;BME280;51449;51.676;5.812;2023-04-02T11:27:24;102275.38;;;6.61;65.37
59104;BME280;51449;51.676;5.812;2023-04-02T11:39:45;102303.25;;;6.48;66.09
59104;BME280;51449;51.676;5.812;2023-04-02T11:42:31;102304.91;;;6.49;65.96
59104;BME280;51449;51.676;5.812;2023-04-02T11:53:04;102330.19;;;6.08;65.55
59104;BME280;51449;51.676;5.812;2023-04-02T11:58:48;102333.53;;;6.20;65.81
59104;BME280;51449;51.676;5.812;2023-04-02T12:05:03;102353.66;;;6.52;65.16
59104;BME280;51449;51.676;5.812;2023-04-02T12:07:56;102353.41;;;6.58;64.40
59104;BME280;51449;51.676;5.812;2023-04-02T12:10:53;102348.78;;;6.69;65.09
59104;BME280;51449;51.676;5.812;2023-04-02T12:16:11;102353.22;;;7.01;64.80
59104;BME280;51449;51.676;5.812;2023-04-02T12:18:47;102353.53;;;7.10;63.09
59104;BME280;51449;51.676;5.812;2023-04-02T12:21:26;102352.41;;;7.05;62.75
59104;BME280;51449;51.676;5.812;2023-04-02T12:24:02;102365.84;;;7.12;63.15
59104;BME280;51449;51.676;5.812;2023-04-02T12:26:36;102349.97;;;7.35;61.80
59104;BME280;51449;51.676;5.812;2023-04-02T12:31:57;102363.94;;;7.64;61.79
59104;BME280;51449;51.676;5.812;2023-04-02T12:34:30;102366.94;;;7.67;60.91
59104;BME280;51449;51.676;5.812;2023-04-02T12:37:03;102373.78;;;7.90;60.48
59104;BME280;51449;51.676;5.812;2023-04-02T12:39:35;102367.41;;;8.10;59.78
59104;BME280;51449;51.676;5.812;2023-04-02T12:42:36;102368.38;;;8.50;59.93
59104;BME280;51449;51.676;5.812;2023-04-02T12:45:40;102377.34;;;8.71;57.96
59104;BME280;51449;51.676;5.812;2023-04-02T12:48:12;102371.56;;;8.73;59.17
59104;BME280;51449;51.676;5.812;2023-04-02T12:50:44;102369.63;;;8.78;58.95
59104;BME280;51449;51.676;5.812;2023-04-02T12:53:19;102368.81;;;8.73;58.95
59104;BME280;51449;51.676;5.812;2023-04-02T12:55:54;102370.19;;;8.75;59.51
59104;BME280;51449;51.676;5.812;2023-04-02T12:58:38;102381.47;;;8.74;59.51
59104;BME280;51449;51.676;5.812;2023-04-02T13:01:20;102375.38;;;8.77;59.13
59104;BME280;51449;51.676;5.812;2023-04-02T13:04:06;102379.78;;;8.78;57.70
59104;BME280;51449;51.676;5.812;2023-04-02T13:06:48;102374.63;;;9.11;58.29
59104;BME280;51449;51.676;5.812;2023-04-02T13:12:23;102368.19;;;9.26;56.03
59104;BME280;51449;51.676;5.812;2023-04-02T13:15:07;102377.47;;;9.00;54.24
59104;BME280;51449;51.676;5.812;2023-04-02T13:21:03;102372.53;;;8.97;55.85
59104;BME280;51449;51.676;5.812;2023-04-02T13:23:36;102372.69;;;9.11;55.35
59104;BME280;51449;51.676;5.812;2023-04-02T13:26:20;102372.78;;;9.35;54.74
59104;BME280;51449;51.676;5.812;2023-04-02T13:29:03;102362.63;;;9.65;55.00
59104;BME280;51449;51.676;5.812;2023-04-02T13:31:51;102371.25;;;9.88;53.28
59104;BME280;51449;51.676;5.812;2023-04-02T13:34:24;102363.50;;;9.90;51.73
59104;BME280;51449;51.676;5.812;2023-04-02T13:36:58;102356.81;;;9.96;53.00
59104;BME280;51449;51.676;5.812;2023-04-02T13:39:30;102367.72;;;10.06;51.79
59104;BME280;51449;51.676;5.812;2023-04-02T13:42:03;102364.84;;;10.16;52.40
59104;BME280;51449;51.676;5.812;2023-04-02T13:44:37;102370.72;;;10.34;52.40
59104;BME280;51449;51.676;5.812;2023-04-02T13:47:13;102366.47;;;10.46;51.74
59104;BME280;51449;51.676;5.812;2023-04-02T13:49:48;102368.84;;;10.53;51.77
59104;BME280;51449;51.676;5.812;2023-04-02T13:52:20;102366.44;;;10.70;52.64
59104;BME280;51449;51.676;5.812;2023-04-02T13:54:54;102372.31;;;10.83;50.83
59104;BME280;51449;51.676;5.812;2023-04-02T13:57:30;102362.47;;;10.77;50.86
59104;BME280;51449;51.676;5.812;2023-04-02T14:00:08;102367.59;;;10.64;51.62
59104;BME280;51449;51.676;5.812;2023-04-02T14:02:46;102390.00;;;10.58;51.14
59104;BME280;51449;51.676;5.812;2023-04-02T14:05:45;102397.72;;;10.37;49.19
59104;BME280;51449;51.676;5.812;2023-04-02T14:08:45;102396.88;;;10.12;50.38
59104;BME280;51449;51.676;5.812;2023-04-02T14:15:05;102400.25;;;10.04;50.44
59104;BME280;51449;51.676;5.812;2023-04-02T14:30:21;102401.31;;;10.80;49.69
59104;BME280;51449;51.676;5.812;2023-04-02T14:33:12;102404.28;;;11.03;49.91
59104;BME280;51449;51.676;5.812;2023-04-02T14:36:17;102403.41;;;11.07;49.11
59104;BME280;51449;51.676;5.812;2023-04-02T14:42:02;102414.50;;;11.02;47.16
59104;BME280;51449;51.676;5.812;2023-04-02T14:44:48;102416.81;;;10.95;47.72
59104;BME280;51449;51.676;5.812;2023-04-02T14:47:32;102414.06;;;10.95;48.17
59104;BME280;51449;51.676;5.812;2023-04-02T14:50:40;102402.28;;;11.08;48.15
59104;BME280;51449;51.676;5.812;2023-04-02T14:53:37;102422.47;;;11.23;48.32
59104;BME280;51449;51.676;5.812;2023-04-02T14:56:20;102419.44;;;11.24;48.43
59104;BME280;51449;51.676;5.812;2023-04-02T14:59:28;102417.16;;;11.26;47.65
59104;BME280;51449;51.676;5.812;2023-04-02T15:13:44;102421.81;;;10.93;47.58
59104;BME280;51449;51.676;5.812;2023-04-02T15:16:24;102436.56;;;11.02;47.94
59104;BME280;51449;51.676;5.812;2023-04-02T15:18:59;102437.53;;;11.11;47.42
59104;BME280;51449;51.676;5.812;2023-04-02T15:27:59;102438.22;;;11.03;47.44
59104;BME280;51449;51.676;5.812;2023-04-02T15:30:47;102443.56;;;10.95;45.92
59104;BME280;51449;51.676;5.812;2023-04-02T15:33:33;102435.41;;;10.84;45.74
59104;BME280;51449;51.676;5.812;2023-04-02T15:36:36;102445.31;;;10.66;46.10
59104;BME280;51449;51.676;5.812;2023-04-02T15:42:29;102448.06;;;10.66;46.82
59104;BME280;51449;51.676;5.812;2023-04-02T15:48:00;102456.38;;;10.85;48.22
59104;BME280;51449;51.676;5.812;2023-04-02T15:53:29;102458.31;;;11.04;47.95
59104;BME280;51449;51.676;5.812;2023-04-02T15:56:29;102464.97;;;11.03;47.79
59104;BME280;51449;51.676;5.812;2023-04-02T15:59:29;102464.59;;;11.09;48.31
59104;BME280;51449;51.676;5.812;2023-04-02T16:05:37;102470.63;;;10.92;48.13
59104;BME280;51449;51.676;5.812;2023-04-02T16:08:35;102471.22;;;10.65;48.38
59104;BME280;51449;51.676;5.812;2023-04-02T16:11:31;102481.59;;;10.49;49.41
59104;BME280;51449;51.676;5.812;2023-04-02T16:14:23;102483.00;;;10.47;48.97
59104;BME280;51449;51.676;5.812;2023-04-02T16:17:02;102488.53;;;10.47;49.20
59104;BME280;51449;51.676;5.812;2023-04-02T16:20:09;102495.78;;;10.38;48.20
59104;BME280;51449;51.676;5.812;2023-04-02T16:23:16;102505.66;;;10.44;49.49
59104;BME280;51449;51.676;5.812;2023-04-02T16:31:54;102505.06;;;10.47;48.12
59104;BME280;51449;51.676;5.812;2023-04-02T16:34:46;102512.19;;;10.48;47.97
59104;BME280;51449;51.676;5.812;2023-04-02T16:37:42;102513.31;;;10.47;47.75
59104;BME280;51449;51.676;5.812;2023-04-02T16:43:05;102521.81;;;10.50;48.63
59104;BME280;51449;51.676;5.812;2023-04-02T16:45:58;102526.63;;;10.40;48.43
59104;BME280;51449;51.676;5.812;2023-04-02T16:48:58;102527.22;;;10.37;49.18
59104;BME280;51449;51.676;5.812;2023-04-02T16:51:56;102531.31;;;10.39;48.89
59104;BME280;51449;51.676;5.812;2023-04-02T16:54:54;102542.28;;;10.44;48.87
59104;BME280;51449;51.676;5.812;2023-04-02T16:57:43;102541.16;;;10.45;48.11
59104;BME280;51449;51.676;5.812;2023-04-02T17:00:55;102548.19;;;10.33;47.67
59104;BME280;51449;51.676;5.812;2023-04-02T17:07:25;102559.34;;;10.12;47.92
59104;BME280;51449;51.676;5.812;2023-04-02T17:16:21;102568.28;;;9.94;48.40
59104;BME280;51449;51.676;5.812;2023-04-02T17:19:08;102568.88;;;9.91;48.39